Time;durP1;ratioP1;P1;durP2;ratioP2;P2;SDS_P1;SDS_P2;PMS_P1;PMS_P2;Temp;Humidity;BMP_temperature;BMP_pressure;BME280_temperature;BME280_humidity;BME280_pressure;Samples;Min_cycle;Max_cycle;Signal;HPM_P1;HPM_P2
2022/11/08 00:02:30;;;;;;;0.10;0.10;;;9.00;99.90;;;;;;5045310;28;20225;-88
2022/11/08 00:04:55;;;;;;;0.00;0.00;;;9.00;99.90;;;;;;5044958;28;20276;-87
2022/11/08 00:15:37;;;;;;;0.10;0.10;;;9.10;99.90;;;;;;5043816;28;20223;-88
2022/11/08 00:18:04;;;;;;;0.10;0.10;;;9.10;99.90;;;;;;5047378;28;20209;-87
2022/11/08 00:20:30;;;;;;;0.10;0.10;;;9.10;99.90;;;;;;5047485;28;20189;-88
2022/11/08 00:22:56;;;;;;;0.10;0.10;;;9.00;99.90;;;;;;5063484;28;20183;-88
2022/11/08 00:25:21;;;;;;;0.10;0.10;;;9.00;99.90;;;;;;5063802;28;20193;-88
2022/11/08 00:27:47;;;;;;;0.10;0.10;;;8.80;99.90;;;;;;5048487;28;20196;-87
2022/11/08 00:30:12;;;;;;;0.10;0.10;;;8.80;99.90;;;;;;5048216;28;20250;-88
2022/11/08 00:32:38;;;;;;;0.10;0.10;;;8.70;99.90;;;;;;5046883;28;20409;-88
2022/11/08 00:35:04;;;;;;;0.03;0.03;;;8.70;99.90;;;;;;5047308;28;20625;-87
2022/11/08 00:37:29;;;;;;;0.10;0.10;;;8.70;99.90;;;;;;5046331;28;20185;-86
2022/11/08 00:39:55;;;;;;;0.10;0.10;;;8.60;99.90;;;;;;5047915;28;20227;-88
2022/11/08 00:42:20;;;;;;;0.07;0.07;;;8.70;99.90;;;;;;5046684;28;20174;-87
2022/11/08 00:44:46;;;;;;;0.00;0.00;;;8.70;99.90;;;;;;5046779;28;20302;-88
2022/11/08 00:47:11;;;;;;;0.00;0.00;;;8.70;99.90;;;;;;5048133;28;20245;-88
2022/11/08 00:49:37;;;;;;;0.10;0.10;;;8.70;99.90;;;;;;5048313;28;20212;-87
2022/11/08 00:52:03;;;;;;;0.00;0.00;;;8.70;99.90;;;;;;5047633;28;20193;-87
2022/11/08 00:54:28;;;;;;;0.10;0.10;;;8.70;99.90;;;;;;5048134;28;20191;-87
2022/11/08 00:56:54;;;;;;;0.10;0.10;;;8.70;99.90;;;;;;5046877;28;20239;-88
2022/11/08 00:59:19;;;;;;;0.10;0.10;;;8.70;99.90;;;;;;5046163;28;20865;-87
2022/11/08 01:01:45;;;;;;;0.10;0.10;;;8.80;99.90;;;;;;5048449;28;20184;-87
2022/11/08 01:04:13;;;;;;;0.10;0.10;;;8.70;99.90;;;;;;5064700;28;20178;-86
2022/11/08 01:06:38;;;;;;;0.10;0.10;;;8.70;99.90;;;;;;5046741;28;20731;-87
2022/11/08 01:09:05;;;;;;;0.10;0.10;;;8.70;99.90;;;;;;5047553;28;20209;-88
2022/11/08 01:11:31;;;;;;;0.10;0.10;;;8.50;99.90;;;;;;5047695;28;20180;-88
2022/11/08 01:13:59;;;;;;;0.10;0.10;;;8.40;99.90;;;;;;5063288;28;20186;-88
2022/11/08 01:16:27;;;;;;;0.00;0.00;;;8.40;99.90;;;;;;5047070;28;20973;-88
2022/11/08 01:18:54;;;;;;;0.10;0.10;;;8.30;99.90;;;;;;5046842;28;20666;-88
2022/11/08 01:21:20;;;;;;;0.00;0.00;;;8.30;99.90;;;;;;5048068;28;20180;-88
2022/11/08 01:23:45;;;;;;;0.10;0.10;;;8.20;99.90;;;;;;5046456;28;20263;-88
2022/11/08 01:26:17;;;;;;;0.10;0.10;;;8.20;99.90;;;;;;5047215;28;20287;-87
2022/11/08 01:28:44;;;;;;;0.10;0.10;;;8.10;99.90;;;;;;5046018;28;20212;-87
2022/11/08 01:31:18;;;;;;;0.00;0.00;;;8.00;99.90;;;;;;5056918;28;20209;-87
2022/11/08 01:33:44;;;;;;;0.00;0.00;;;8.00;99.90;;;;;;5046518;28;20180;-87
2022/11/08 01:36:11;;;;;;;0.10;0.10;;;8.10;99.90;;;;;;5046878;28;20696;-87
2022/11/08 01:38:37;;;;;;;0.00;0.00;;;8.10;99.90;;;;;;5061432;28;20201;-88
2022/11/08 01:41:03;;;;;;;0.10;0.10;;;8.10;99.90;;;;;;5046330;28;20187;-87
2022/11/08 01:43:32;;;;;;;0.10;0.10;;;8.10;99.90;;;;;;5061984;28;20708;-88
2022/11/08 01:46:28;;;;;;;0.10;0.10;;;8.10;99.90;;;;;;5056763;28;20267;-88
2022/11/08 01:49:12;;;;;;;0.00;0.00;;;8.00;99.90;;;;;;5055849;28;20210;-86
2022/11/08 01:51:49;;;;;;;0.10;0.10;;;8.10;99.90;;;;;;5054898;28;20228;-88
2022/11/08 01:54:23;;;;;;;0.10;0.10;;;8.00;99.90;;;;;;5055120;28;20184;-86
2022/11/08 01:56:49;;;;;;;0.10;0.10;;;8.00;99.90;;;;;;5063054;28;20211;-86
2022/11/08 01:59:17;;;;;;;0.10;0.10;;;8.00;99.90;;;;;;5047486;28;20200;-87
2022/11/08 02:01:43;;;;;;;0.10;0.10;;;8.00;99.90;;;;;;5047286;28;20180;-87
2022/11/08 02:04:11;;;;;;;0.10;0.10;;;8.00;99.90;;;;;;5044208;28;20193;-87
2022/11/08 02:06:37;;;;;;;0.00;0.00;;;8.00;99.90;;;;;;5053339;28;20209;-87
2022/11/08 02:09:06;;;;;;;0.00;0.00;;;8.00;99.90;;;;;;5044686;28;20209;-87
2022/11/08 02:11:33;;;;;;;0.10;0.10;;;8.10;99.90;;;;;;5045416;28;20190;-86
2022/11/08 02:13:59;;;;;;;0.10;0.10;;;8.10;99.90;;;;;;5045636;28;20745;-87
2022/11/08 02:16:24;;;;;;;0.00;0.00;;;8.10;99.90;;;;;;5045106;28;20214;-87
2022/11/08 02:18:50;;;;;;;0.00;0.00;;;8.10;99.90;;;;;;5044971;28;20203;-87
2022/11/08 02:21:26;;;;;;;0.00;0.00;;;8.10;99.90;;;;;;5045026;28;20201;-87
2022/11/08 02:23:59;;;;;;;0.10;0.10;;;8.10;99.90;;;;;;5044403;28;20773;-87
2022/11/08 02:26:29;;;;;;;0.10;0.10;;;8.10;99.90;;;;;;5043773;28;20282;-86
2022/11/08 02:28:56;;;;;;;0.10;0.10;;;8.10;99.90;;;;;;5044748;28;20220;-87
2022/11/08 02:31:22;;;;;;;0.00;0.00;;;8.00;99.90;;;;;;5046266;28;20219;-87
2022/11/08 02:33:48;;;;;;;0.10;0.10;;;7.90;99.90;;;;;;5061751;28;20190;-88
2022/11/08 02:36:23;;;;;;;0.10;0.10;;;7.90;99.90;;;;;;5046153;28;20298;-87
2022/11/08 02:38:56;;;;;;;0.10;0.10;;;7.90;99.90;;;;;;5044902;28;20205;-87
2022/11/08 02:41:22;;;;;;;0.00;0.00;;;7.90;99.90;;;;;;5060868;28;22009;-87
2022/11/08 02:43:47;;;;;;;0.10;0.10;;;7.90;99.90;;;;;;5045401;28;20176;-86
2022/11/08 02:46:13;;;;;;;0.03;0.03;;;7.90;99.90;;;;;;5044993;28;20256;-86
2022/11/08 02:48:38;;;;;;;0.07;0.07;;;7.80;99.90;;;;;;5043316;28;20219;-87
2022/11/08 02:51:04;;;;;;;0.10;0.10;;;7.80;99.90;;;;;;5044430;28;20192;-86
2022/11/08 02:53:30;;;;;;;0.00;0.00;;;7.90;99.90;;;;;;5044698;28;20221;-88
2022/11/08 02:55:55;;;;;;;0.00;0.00;;;7.80;99.90;;;;;;5044967;28;20288;-86
2022/11/08 02:58:21;;;;;;;0.03;0.03;;;7.80;99.90;;;;;;5060996;28;20744;-88
2022/11/08 03:00:46;;;;;;;0.10;0.10;;;7.80;99.90;;;;;;5043925;28;20194;-85
2022/11/08 03:03:12;;;;;;;0.10;0.10;;;7.80;99.90;;;;;;5043578;28;20186;-85
2022/11/08 03:05:37;;;;;;;0.03;0.03;;;7.80;99.90;;;;;;5044049;28;20191;-85
2022/11/08 03:08:03;;;;;;;0.07;0.07;;;7.80;99.90;;;;;;5043976;28;21377;-88
2022/11/08 03:10:29;;;;;;;0.10;0.10;;;7.80;99.90;;;;;;5060628;28;20199;-89
2022/11/08 03:13:00;;;;;;;0.10;0.10;;;7.80;99.90;;;;;;5045911;28;20186;-87
2022/11/08 03:15:26;;;;;;;0.07;0.07;;;7.80;99.90;;;;;;5045162;28;20212;-87
2022/11/08 03:17:52;;;;;;;0.10;0.10;;;7.80;99.90;;;;;;5059852;28;20185;-87
2022/11/08 03:20:17;;;;;;;0.10;0.10;;;7.90;99.90;;;;;;5044301;28;20198;-88
2022/11/08 03:22:44;;;;;;;0.10;0.10;;;7.80;99.90;;;;;;5043699;28;20197;-88
2022/11/08 03:25:09;;;;;;;0.10;0.10;;;7.80;99.90;;;;;;5060844;28;20204;-87
2022/11/08 03:27:36;;;;;;;0.10;0.10;;;7.90;99.90;;;;;;5045081;28;20204;-88
2022/11/08 03:30:02;;;;;;;0.10;0.10;;;7.90;99.90;;;;;;5045535;28;20620;-88
2022/11/08 03:32:27;;;;;;;0.10;0.10;;;7.90;99.90;;;;;;5044940;28;20194;-88
2022/11/08 03:34:53;;;;;;;0.00;0.00;;;7.90;99.90;;;;;;5044445;28;20194;-86
2022/11/08 03:37:18;;;;;;;0.00;0.00;;;7.90;99.90;;;;;;5043661;28;20189;-88
2022/11/08 03:39:44;;;;;;;0.00;0.00;;;7.90;99.90;;;;;;5044483;28;20739;-87
2022/11/08 03:42:09;;;;;;;0.00;0.00;;;7.90;99.90;;;;;;5043485;28;20179;-88
2022/11/08 03:44:35;;;;;;;0.03;0.03;;;7.90;99.90;;;;;;5043618;28;20572;-88
2022/11/08 03:47:00;;;;;;;0.10;0.10;;;7.90;99.90;;;;;;5059763;28;20188;-88
2022/11/08 03:49:26;;;;;;;0.10;0.10;;;7.80;99.90;;;;;;5061875;28;20215;-88
2022/11/08 03:51:53;;;;;;;0.10;0.10;;;7.70;99.90;;;;;;5044365;28;20652;-86
2022/11/08 03:54:18;;;;;;;0.10;0.10;;;7.70;99.90;;;;;;5054536;28;20186;-88
2022/11/08 03:56:44;;;;;;;0.10;0.10;;;7.60;99.90;;;;;;5061398;28;20273;-88
2022/11/08 03:59:11;;;;;;;0.10;0.10;;;7.60;99.90;;;;;;5044256;28;20208;-88
2022/11/08 04:01:37;;;;;;;0.10;0.10;;;7.60;99.90;;;;;;5044516;28;20179;-87
2022/11/08 04:04:03;;;;;;;0.10;0.10;;;7.60;99.90;;;;;;5046201;28;20174;-87
2022/11/08 04:06:28;;;;;;;0.10;0.10;;;7.60;99.90;;;;;;5044044;28;20556;-87
2022/11/08 04:08:54;;;;;;;0.10;0.10;;;7.50;99.90;;;;;;5045867;28;20199;-88
2022/11/08 04:16:48;;;;;;;0.10;0.10;;;7.40;99.90;;;;;;5043934;28;20220;-88
2022/11/08 04:21:57;;;;;;;0.00;0.00;;;7.60;99.90;;;;;;5045992;28;20203;-88
2022/11/08 04:24:23;;;;;;;0.07;0.07;;;7.70;99.90;;;;;;5045310;28;20185;-88
2022/11/08 04:26:48;;;;;;;0.10;0.10;;;7.60;99.90;;;;;;5044317;28;20195;-87
2022/11/08 04:29:14;;;;;;;0.10;0.10;;;7.70;99.90;;;;;;5042911;28;20214;-87
2022/11/08 04:31:40;;;;;;;0.10;0.10;;;7.70;99.90;;;;;;5042960;28;20200;-88
2022/11/08 04:34:06;;;;;;;0.10;0.10;;;7.70;99.90;;;;;;5059462;28;20218;-87
2022/11/08 04:36:32;;;;;;;0.10;0.10;;;7.80;99.90;;;;;;5043562;28;20651;-88
2022/11/08 04:38:58;;;;;;;0.10;0.10;;;7.80;99.90;;;;;;5044082;28;20698;-88
2022/11/08 04:41:24;;;;;;;0.10;0.10;;;7.80;99.90;;;;;;5042898;28;20306;-88
2022/11/08 04:43:52;;;;;;;0.10;0.10;;;7.80;99.90;;;;;;5044037;28;20191;-88
2022/11/08 04:46:21;;;;;;;0.03;0.03;;;7.90;99.90;;;;;;5042682;28;20178;-87
2022/11/08 04:48:49;;;;;;;0.00;0.00;;;7.80;99.90;;;;;;5044314;28;20206;-87
2022/11/08 04:51:17;;;;;;;0.10;0.10;;;7.90;99.90;;;;;;5060171;28;20178;-87
2022/11/08 04:53:43;;;;;;;0.10;0.10;;;7.90;99.90;;;;;;5045700;28;20604;-87
2022/11/08 04:56:14;;;;;;;0.00;0.00;;;7.90;99.90;;;;;;5043919;28;20296;-88
2022/11/08 04:58:45;;;;;;;0.10;0.10;;;8.00;99.90;;;;;;5043180;28;20205;-87
2022/11/08 05:01:13;;;;;;;0.10;0.10;;;8.00;99.90;;;;;;5043360;28;20193;-88
2022/11/08 05:03:38;;;;;;;0.10;0.10;;;8.00;99.90;;;;;;5045698;28;20189;-88
2022/11/08 05:06:11;;;;;;;0.10;0.10;;;8.10;99.90;;;;;;5047437;28;20896;-88
2022/11/08 05:08:37;;;;;;;0.10;0.10;;;8.10;99.90;;;;;;5046883;28;20723;-88
2022/11/08 05:11:19;;;;;;;0.10;0.10;;;8.10;99.90;;;;;;5047912;28;20730;-87
2022/11/08 05:13:45;;;;;;;0.00;0.00;;;8.10;99.90;;;;;;5046749;28;20239;-88
2022/11/08 05:16:20;;;;;;;0.10;0.10;;;7.90;99.90;;;;;;5046390;28;20213;-88
2022/11/08 05:18:45;;;;;;;0.03;0.03;;;7.80;99.90;;;;;;5046857;28;20200;-88
2022/11/08 05:23:58;;;;;;;0.10;0.10;;;7.70;99.90;;;;;;5047761;28;20185;-88
2022/11/08 05:26:24;;;;;;;0.10;0.10;;;7.60;99.90;;;;;;5046731;28;20201;-89
2022/11/08 05:28:49;;;;;;;0.10;0.10;;;7.50;99.90;;;;;;5062923;28;20221;-87
2022/11/08 05:31:15;;;;;;;0.00;0.00;;;7.50;99.90;;;;;;5046363;28;20273;-87
2022/11/08 05:33:41;;;;;;;0.10;0.10;;;7.40;99.90;;;;;;5046147;28;20200;-88
2022/11/08 05:36:09;;;;;;;0.00;0.00;;;7.50;99.90;;;;;;5046106;28;20208;-88
2022/11/08 05:38:36;;;;;;;0.10;0.10;;;7.50;99.90;;;;;;5045856;28;20736;-87
2022/11/08 05:41:03;;;;;;;0.00;0.00;;;7.50;99.90;;;;;;5062702;28;20282;-88
2022/11/08 05:43:35;;;;;;;0.03;0.03;;;7.60;99.90;;;;;;5047175;28;20191;-87
2022/11/08 05:46:01;;;;;;;0.10;0.10;;;7.60;99.90;;;;;;5045819;28;20274;-87
2022/11/08 05:48:27;;;;;;;0.10;0.10;;;7.60;99.90;;;;;;5046428;28;20227;-87
2022/11/08 05:50:52;;;;;;;0.10;0.10;;;7.60;99.90;;;;;;5046324;28;20196;-89
2022/11/08 05:53:18;;;;;;;0.10;0.10;;;7.50;99.90;;;;;;5046908;28;20190;-88
2022/11/08 05:55:44;;;;;;;0.07;0.07;;;7.50;99.90;;;;;;5056257;28;20243;-88
2022/11/08 05:58:09;;;;;;;0.10;0.10;;;7.40;99.90;;;;;;5045859;28;20206;-87
2022/11/08 06:00:35;;;;;;;0.10;0.10;;;7.40;99.90;;;;;;5045361;28;20205;-88
2022/11/08 06:03:02;;;;;;;0.10;0.10;;;7.30;99.90;;;;;;5046959;28;20183;-88
2022/11/08 06:05:27;;;;;;;0.00;0.00;;;7.30;99.90;;;;;;5062765;28;20857;-87
2022/11/08 06:07:53;;;;;;;0.10;0.10;;;7.30;99.90;;;;;;5045338;28;20177;-87
2022/11/08 06:10:19;;;;;;;0.10;0.10;;;7.10;99.90;;;;;;5046168;28;20183;-87
2022/11/08 06:12:44;;;;;;;0.00;0.00;;;7.20;99.90;;;;;;5046134;28;20211;-88
2022/11/08 06:15:10;;;;;;;0.10;0.10;;;7.10;99.90;;;;;;5044839;28;21203;-87
2022/11/08 06:17:35;;;;;;;0.00;0.00;;;7.00;99.90;;;;;;5046729;28;20190;-85
2022/11/08 06:20:03;;;;;;;0.10;0.10;;;6.90;99.90;;;;;;5045860;28;20212;-86
2022/11/08 06:22:33;;;;;;;0.10;0.10;;;6.90;99.90;;;;;;5044849;28;20191;-86
2022/11/08 06:24:59;;;;;;;0.10;0.10;;;6.90;99.90;;;;;;5046983;28;20182;-88
2022/11/08 06:27:25;;;;;;;0.10;0.10;;;6.90;99.90;;;;;;5046005;28;20337;-87
2022/11/08 06:29:50;;;;;;;0.10;0.10;;;6.90;99.90;;;;;;5062172;28;20202;-87
2022/11/08 06:32:16;;;;;;;0.07;0.07;;;6.90;99.90;;;;;;5046111;28;20809;-88
2022/11/08 06:34:47;;;;;;;0.00;0.00;;;7.10;99.90;;;;;;5062669;28;20221;-87
2022/11/08 06:37:14;;;;;;;0.10;0.10;;;7.20;99.90;;;;;;5046756;28;20213;-88
2022/11/08 06:39:40;;;;;;;0.10;0.10;;;7.20;99.90;;;;;;5062685;28;20214;-88
2022/11/08 06:42:06;;;;;;;0.10;0.10;;;7.30;99.90;;;;;;5046499;28;20180;-87
2022/11/08 06:44:31;;;;;;;0.07;0.07;;;7.40;99.90;;;;;;5046204;28;20183;-87
2022/11/08 06:46:58;;;;;;;0.10;0.10;;;7.40;99.90;;;;;;5061971;28;20181;-87
2022/11/08 06:49:24;;;;;;;0.00;0.00;;;7.50;99.90;;;;;;5045785;28;20205;-87
2022/11/08 06:51:50;;;;;;;0.10;0.10;;;7.50;99.90;;;;;;5045767;28;20205;-87
2022/11/08 06:54:16;;;;;;;0.10;0.10;;;7.60;99.90;;;;;;5046437;28;20189;-85
2022/11/08 06:56:42;;;;;;;0.10;0.10;;;7.70;99.90;;;;;;5043855;28;20211;-85
2022/11/08 06:59:08;;;;;;;0.10;0.10;;;7.70;99.90;;;;;;5052587;28;20204;-86
2022/11/08 07:01:35;;;;;;;0.10;0.10;;;7.70;99.90;;;;;;5045513;28;21228;-88
2022/11/08 07:04:01;;;;;;;0.10;0.10;;;7.80;99.90;;;;;;5045458;28;20188;-88
2022/11/08 07:06:26;;;;;;;0.10;0.10;;;7.80;99.90;;;;;;5045616;28;20196;-88
2022/11/08 07:08:52;;;;;;;0.10;0.10;;;7.80;99.90;;;;;;5042742;28;20201;-86
2022/11/08 07:11:17;;;;;;;0.10;0.10;;;7.80;99.90;;;;;;5043218;28;20260;-86
2022/11/08 07:13:43;;;;;;;0.03;0.03;;;7.80;99.90;;;;;;5039358;28;20182;-86
2022/11/08 07:16:08;;;;;;;0.10;0.10;;;7.90;99.90;;;;;;5041090;28;20218;-88
2022/11/08 07:18:34;;;;;;;0.10;0.10;;;7.90;99.90;;;;;;5040541;28;20204;-87
2022/11/08 07:21:02;;;;;;;0.10;0.10;;;8.00;99.90;;;;;;5042243;28;20181;-88
2022/11/08 07:23:28;;;;;;;0.10;0.10;;;8.10;99.90;;;;;;5043731;28;20189;-87
2022/11/08 07:25:54;;;;;;;0.10;0.10;;;8.10;99.90;;;;;;5041157;28;20277;-86
2022/11/08 07:28:20;;;;;;;0.00;0.00;;;8.10;99.90;;;;;;5041884;28;20218;-87
2022/11/08 07:30:47;;;;;;;0.10;0.10;;;8.30;99.90;;;;;;5041370;28;20733;-87
2022/11/08 07:33:14;;;;;;;0.00;0.00;;;8.40;99.90;;;;;;5045447;28;20181;-88
2022/11/08 07:35:40;;;;;;;0.10;0.10;;;8.50;99.90;;;;;;5046479;28;20862;-86
2022/11/08 07:38:06;;;;;;;0.10;0.10;;;8.50;99.90;;;;;;5042354;28;20466;-86
2022/11/08 07:40:34;;;;;;;0.10;0.10;;;8.50;99.90;;;;;;5044710;28;20285;-84
2022/11/08 07:43:00;;;;;;;0.10;0.10;;;8.50;99.90;;;;;;5047046;28;20204;-85
2022/11/08 07:45:27;;;;;;;0.10;0.10;;;8.50;99.90;;;;;;5047154;28;20301;-85
2022/11/08 07:48:00;;;;;;;0.10;0.10;;;8.50;99.90;;;;;;5045468;28;20200;-84
2022/11/08 07:50:27;;;;;;;0.10;0.10;;;8.50;99.90;;;;;;5046556;28;20191;-84
2022/11/08 07:52:52;;;;;;;0.10;0.10;;;8.60;99.90;;;;;;5047339;28;20282;-85
2022/11/08 07:55:19;;;;;;;0.10;0.10;;;8.70;99.90;;;;;;5046250;28;20269;-85
2022/11/08 07:57:45;;;;;;;0.10;0.10;;;8.70;99.90;;;;;;5048124;28;20188;-85
2022/11/08 08:00:11;;;;;;;0.10;0.10;;;8.70;99.90;;;;;;5062668;28;20669;-84
2022/11/08 08:02:36;;;;;;;0.10;0.10;;;8.70;99.90;;;;;;5044550;28;20278;-86
2022/11/08 08:05:02;;;;;;;0.10;0.10;;;8.70;99.90;;;;;;5045172;28;20367;-85
2022/11/08 08:07:27;;;;;;;0.10;0.10;;;8.70;99.90;;;;;;5044555;28;21104;-85
2022/11/08 08:09:53;;;;;;;0.10;0.10;;;8.80;99.90;;;;;;5047824;28;20199;-85
2022/11/08 08:12:19;;;;;;;0.10;0.10;;;9.10;99.90;;;;;;5045874;28;20180;-85
2022/11/08 08:14:44;;;;;;;0.10;0.10;;;9.20;99.90;;;;;;5047089;28;20236;-84
2022/11/08 08:17:09;;;;;;;0.10;0.10;;;9.30;99.90;;;;;;5062504;28;20226;-86
2022/11/08 08:19:35;;;;;;;0.10;0.10;;;9.60;99.90;;;;;;5043926;28;20671;-87
2022/11/08 08:22:00;;;;;;;0.10;0.10;;;9.90;99.90;;;;;;5042146;28;20207;-87
2022/11/08 08:24:26;;;;;;;0.10;0.10;;;10.00;99.90;;;;;;5043035;28;20271;-88
2022/11/08 08:26:52;;;;;;;0.10;0.10;;;10.20;99.90;;;;;;5043603;28;20210;-88
2022/11/08 08:29:18;;;;;;;0.00;0.00;;;9.90;99.90;;;;;;5043100;28;20711;-87
2022/11/08 08:31:43;;;;;;;0.10;0.10;;;9.70;99.90;;;;;;5034365;28;20188;-87
2022/11/08 08:34:09;;;;;;;0.10;0.10;;;9.50;99.90;;;;;;5043249;28;20196;-87
2022/11/08 08:36:34;;;;;;;0.10;0.10;;;9.50;99.90;;;;;;5043410;28;20220;-88
2022/11/08 08:39:00;;;;;;;0.10;0.10;;;9.70;99.90;;;;;;5048947;28;20216;-85
2022/11/08 08:41:25;;;;;;;0.10;0.10;;;9.60;99.90;;;;;;5064909;28;20223;-85
2022/11/08 08:43:51;;;;;;;0.67;0.67;;;9.80;99.90;;;;;;5049323;28;20187;-84
2022/11/08 08:46:16;;;;;;;0.10;0.10;;;9.70;99.90;;;;;;5047836;28;20287;-84
2022/11/08 08:48:42;;;;;;;0.10;0.10;;;9.60;99.90;;;;;;5047138;28;20257;-84
2022/11/08 08:51:07;;;;;;;0.10;0.10;;;9.40;99.90;;;;;;5062023;28;20273;-85
2022/11/08 08:53:33;;;;;;;0.10;0.10;;;9.60;99.90;;;;;;5046650;28;20196;-84
2022/11/08 08:56:01;;;;;;;0.10;0.10;;;9.80;99.90;;;;;;5048890;28;20485;-84
2022/11/08 08:58:26;;;;;;;0.10;0.10;;;9.60;99.90;;;;;;5052130;28;20716;-85
2022/11/08 09:00:52;;;;;;;0.10;0.10;;;9.60;99.90;;;;;;5051352;28;20193;-85
2022/11/08 09:03:17;;;;;;;0.10;0.10;;;9.90;99.90;;;;;;5051920;28;20188;-84
2022/11/08 09:05:45;;;;;;;0.10;0.10;;;10.20;99.90;;;;;;5047879;28;20195;-84
2022/11/08 09:08:11;;;;;;;0.10;0.10;;;10.30;99.90;;;;;;5063922;28;20238;-84
2022/11/08 09:10:37;;;;;;;0.10;0.10;;;10.80;99.90;;;;;;5047814;28;20654;-84
2022/11/08 09:13:03;;;;;;;0.10;0.10;;;11.00;99.90;;;;;;5064596;28;20220;-85
2022/11/08 09:15:28;;;;;;;0.10;0.10;;;11.20;99.90;;;;;;5063897;28;20263;-84
2022/11/08 09:17:54;;;;;;;0.10;0.10;;;11.40;99.90;;;;;;5046875;28;20203;-83
2022/11/08 09:20:21;;;;;;;0.10;0.10;;;11.70;99.90;;;;;;5053362;28;20193;-83
2022/11/08 09:22:46;;;;;;;0.10;0.10;;;11.90;99.90;;;;;;5066051;28;20792;-83
2022/11/08 09:25:12;;;;;;;0.10;0.10;;;12.00;99.90;;;;;;5050871;28;20181;-83
2022/11/08 09:27:37;;;;;;;0.10;0.10;;;12.00;99.90;;;;;;5051628;28;20192;-83
2022/11/08 09:30:04;;;;;;;0.00;0.00;;;11.90;99.90;;;;;;5066077;28;20210;-84
2022/11/08 09:32:30;;;;;;;0.10;0.10;;;12.00;99.90;;;;;;5059271;28;20186;-84
2022/11/08 09:34:56;;;;;;;0.10;0.10;;;12.00;99.90;;;;;;5049726;28;20251;-83
2022/11/08 09:37:23;;;;;;;0.10;0.10;;;12.10;99.90;;;;;;5048845;28;20212;-85
2022/11/08 09:39:48;;;;;;;0.10;0.10;;;12.10;99.90;;;;;;5047686;28;20212;-84
2022/11/08 09:42:39;;;;;;;0.10;0.10;;;12.20;99.90;;;;;;5060132;28;20212;-84
2022/11/08 09:45:30;;;;;;;0.10;0.10;;;12.00;99.90;;;;;;5066007;28;20212;-84
2022/11/08 09:48:13;;;;;;;0.10;0.10;;;11.50;99.90;;;;;;5051045;28;20729;-85
2022/11/08 09:50:43;;;;;;;0.00;0.00;;;11.90;99.90;;;;;;5045719;28;20658;-85
2022/11/08 09:53:15;;;;;;;0.10;0.10;;;12.40;99.90;;;;;;5062011;28;20186;-84
2022/11/08 09:55:54;;;;;;;0.03;0.03;;;12.50;99.90;;;;;;5046527;28;20734;-84
2022/11/08 09:58:34;;;;;;;0.10;0.10;;;12.20;99.90;;;;;;5042523;28;20212;-83
2022/11/08 10:01:01;;;;;;;0.10;0.10;;;12.40;99.90;;;;;;5046352;28;20182;-83
2022/11/08 10:03:27;;;;;;;0.10;0.10;;;12.70;99.90;;;;;;5044997;28;20261;-83
2022/11/08 10:06:26;;;;;;;0.10;0.10;;;12.50;99.90;;;;;;5045147;28;20216;-83
2022/11/08 10:09:18;;;;;;;0.10;0.10;;;12.40;99.90;;;;;;5012986;28;20210;-85
2022/11/08 10:11:50;;;;;;;0.10;0.10;;;12.30;99.90;;;;;;5046179;28;21225;-83
2022/11/08 10:14:31;;;;;;;0.10;0.10;;;12.80;99.90;;;;;;5036809;28;20193;-83
2022/11/08 10:17:08;;;;;;;0.10;0.10;;;12.90;99.90;;;;;;5045725;28;20219;-83
2022/11/08 10:19:54;;;;;;;0.10;0.10;;;13.30;99.90;;;;;;5049011;28;20224;-83
2022/11/08 10:23:06;;;;;;;0.10;0.10;;;13.50;99.90;;;;;;5044722;28;20174;-83
2022/11/08 10:25:41;;;;;;;0.10;0.10;;;13.90;99.90;;;;;;4999148;28;20220;-84
2022/11/08 10:28:11;;;;;;;0.10;0.10;;;13.70;99.90;;;;;;5048049;28;20173;-83
2022/11/08 10:30:40;;;;;;;0.10;0.10;;;14.10;99.90;;;;;;5046123;28;20188;-83
2022/11/08 10:33:19;;;;;;;0.10;0.10;;;14.30;99.90;;;;;;5047060;28;20201;-83
2022/11/08 10:36:26;;;;;;;0.10;0.10;;;14.20;99.90;;;;;;5046915;28;20202;-83
2022/11/08 10:39:00;;;;;;;0.10;0.10;;;14.50;99.90;;;;;;5013355;28;20222;-83
2022/11/08 10:41:29;;;;;;;0.10;0.10;;;14.80;99.90;;;;;;5046143;28;20216;-83
2022/11/08 10:44:03;;;;;;;0.10;0.10;;;15.00;99.90;;;;;;5049516;28;21111;-83
2022/11/08 10:46:46;;;;;;;0.10;0.10;;;15.10;99.90;;;;;;5046787;28;20186;-84
2022/11/08 10:49:30;;;;;;;0.10;0.10;;;15.30;99.90;;;;;;5059879;28;20231;-83
2022/11/08 10:52:01;;;;;;;0.10;0.10;;;15.20;99.90;;;;;;5064206;28;20252;-83
2022/11/08 10:54:50;;;;;;;0.10;0.10;;;15.40;99.90;;;;;;5045669;28;21223;-83
2022/11/08 10:57:24;;;;;;;0.10;0.10;;;15.10;99.90;;;;;;5044294;28;20218;-83
2022/11/08 10:59:50;;;;;;;0.10;0.10;;;15.10;99.90;;;;;;5035911;28;20213;-84
2022/11/08 11:02:23;;;;;;;0.10;0.10;;;14.90;99.90;;;;;;5046001;28;20181;-83
2022/11/08 11:04:49;;;;;;;0.10;0.10;;;14.20;99.90;;;;;;5046418;28;20513;-84
2022/11/08 11:07:24;;;;;;;0.10;0.10;;;14.30;99.90;;;;;;5044267;28;20191;-83
2022/11/08 11:09:49;;;;;;;0.10;0.10;;;14.50;99.90;;;;;;5043698;28;20206;-83
2022/11/08 11:12:16;;;;;;;0.10;0.10;;;14.50;99.90;;;;;;5046082;28;20188;-83
2022/11/08 11:14:42;;;;;;;0.10;0.10;;;14.40;99.90;;;;;;5045245;28;20186;-83
2022/11/08 11:17:16;;;;;;;0.10;0.10;;;14.00;99.90;;;;;;5045619;28;20628;-83
2022/11/08 11:19:53;;;;;;;0.10;0.10;;;13.60;99.90;;;;;;5059778;28;20253;-83
2022/11/08 11:22:37;;;;;;;0.10;0.10;;;13.70;99.90;;;;;;5033504;28;20179;-83
2022/11/08 11:25:14;;;;;;;0.10;0.10;;;13.60;99.90;;;;;;5057551;28;20621;-83
2022/11/08 11:27:41;;;;;;;0.00;0.00;;;13.40;99.90;;;;;;5057831;28;20192;-82
2022/11/08 11:30:21;;;;;;;0.10;0.10;;;13.70;99.90;;;;;;5041956;28;20214;-83
2022/11/08 11:32:55;;;;;;;0.10;0.10;;;13.90;99.90;;;;;;5052860;28;20187;-83
2022/11/08 11:35:23;;;;;;;0.10;0.10;;;14.10;99.90;;;;;;5055463;28;20186;-83
2022/11/08 11:37:49;;;;;;;0.10;0.10;;;13.80;99.90;;;;;;5046805;28;20241;-82
2022/11/08 11:40:31;;;;;;;0.10;0.10;;;13.90;99.90;;;;;;5045949;28;20199;-83
2022/11/08 11:43:04;;;;;;;0.10;0.10;;;13.80;99.90;;;;;;5046786;28;20189;-83
2022/11/08 11:45:38;;;;;;;0.10;0.10;;;13.60;99.90;;;;;;5047854;28;20190;-84
2022/11/08 11:48:14;;;;;;;0.10;0.10;;;13.90;99.90;;;;;;5042934;28;20249;-83
2022/11/08 11:50:44;;;;;;;0.10;0.10;;;14.00;99.90;;;;;;5040707;28;20188;-86
2022/11/08 11:53:24;;;;;;;0.10;0.10;;;13.50;99.90;;;;;;5056944;28;20185;-87
2022/11/08 11:56:05;;;;;;;0.10;0.10;;;13.30;99.90;;;;;;5051342;28;20209;-87
2022/11/08 11:58:37;;;;;;;0.10;0.10;;;13.20;99.90;;;;;;5042344;28;20757;-86
2022/11/08 12:01:38;;;;;;;0.10;0.10;;;13.00;99.90;;;;;;5043132;28;20187;-86
2022/11/08 12:04:28;;;;;;;0.10;0.10;;;13.30;99.90;;;;;;5043179;28;20688;-86
2022/11/08 12:07:17;;;;;;;0.10;0.10;;;13.50;99.90;;;;;;5042076;28;20182;-86
2022/11/08 12:10:21;;;;;;;0.10;0.10;;;13.50;99.90;;;;;;5044181;28;20627;-87
2022/11/08 12:13:21;;;;;;;0.10;0.10;;;13.70;99.90;;;;;;5036584;28;20269;-87
2022/11/08 12:16:03;;;;;;;0.10;0.10;;;13.70;99.90;;;;;;5065646;28;20324;-84
2022/11/08 12:18:56;;;;;;;0.10;0.10;;;13.90;99.90;;;;;;5045800;28;20301;-87
2022/11/08 12:21:48;;;;;;;0.10;0.10;;;14.00;99.90;;;;;;5038472;28;20387;-87
2022/11/08 12:24:35;;;;;;;0.10;0.10;;;14.20;99.90;;;;;;5042083;28;20179;-86
2022/11/08 12:27:27;;;;;;;0.10;0.10;;;14.40;99.90;;;;;;5042688;28;20187;-86
2022/11/08 12:30:00;;;;;;;0.10;0.10;;;14.30;99.90;;;;;;5044927;28;20207;-86
2022/11/08 12:32:37;;;;;;;0.10;0.10;;;14.30;99.90;;;;;;5055388;28;20225;-85
2022/11/08 12:35:45;;;;;;;0.10;0.10;;;14.50;99.90;;;;;;5035724;28;20212;-84
2022/11/08 12:38:40;;;;;;;0.10;0.10;;;14.60;99.90;;;;;;5045580;28;20239;-84
2022/11/08 12:41:19;;;;;;;0.10;0.10;;;14.70;99.90;;;;;;5037446;28;20195;-85
2022/11/08 12:44:12;;;;;;;0.00;0.00;;;14.70;99.90;;;;;;5047234;28;20188;-84
2022/11/08 12:47:07;;;;;;;0.10;0.10;;;14.60;99.90;;;;;;5047457;28;20228;-84
2022/11/08 12:49:48;;;;;;;0.10;0.10;;;14.70;99.90;;;;;;5046952;28;21270;-85
2022/11/08 12:52:25;;;;;;;0.10;0.10;;;14.80;99.90;;;;;;5041509;28;20215;-86
2022/11/08 12:54:56;;;;;;;0.10;0.10;;;14.70;99.90;;;;;;5053780;28;20179;-85
2022/11/08 12:57:26;;;;;;;0.10;0.10;;;15.00;99.90;;;;;;5046546;28;20573;-86
2022/11/08 13:00:06;;;;;;;0.10;0.10;;;15.30;99.90;;;;;;5047615;28;20241;-87
2022/11/08 13:02:36;;;;;;;0.10;0.10;;;15.50;99.90;;;;;;5047290;28;20199;-87
2022/11/08 13:05:11;;;;;;;0.10;0.10;;;15.10;99.90;;;;;;5047574;28;20399;-86
2022/11/08 13:07:49;;;;;;;0.10;0.10;;;14.70;99.90;;;;;;5046027;28;20220;-87
2022/11/08 13:10:26;;;;;;;0.10;0.10;;;14.60;99.90;;;;;;5046584;28;20225;-86
2022/11/08 13:13:04;;;;;;;0.10;0.10;;;14.90;99.90;;;;;;5046458;28;20560;-87
2022/11/08 13:15:29;;;;;;;0.10;0.10;;;14.90;99.90;;;;;;5062849;28;20259;-86
2022/11/08 13:18:08;;;;;;;0.10;0.10;;;14.90;99.90;;;;;;5047238;28;20180;-86
2022/11/08 13:20:45;;;;;;;0.10;0.10;;;14.90;99.90;;;;;;5045784;28;20266;-87
2022/11/08 13:23:26;;;;;;;0.10;0.10;;;14.90;99.90;;;;;;5038196;28;20176;-86
2022/11/08 13:25:52;;;;;;;0.10;0.10;;;15.20;99.90;;;;;;5045925;28;20184;-87
2022/11/08 13:28:41;;;;;;;0.10;0.10;;;15.60;99.90;;;;;;5061734;28;20278;-85